sensor_id;sensor_type;location;lat;lon;timestamp;P1;durP1;ratioP1;P2;durP2;ratioP2
76193;SDS011;64963;52.212;7.482;2022-12-07T00:01:53;25.07;;;12.07;;
76193;SDS011;64963;52.212;7.482;2022-12-07T00:04:18;23.93;;;11.60;;
76193;SDS011;64963;52.212;7.482;2022-12-07T00:06:44;22.35;;;11.65;;
76193;SDS011;64963;52.212;7.482;2022-12-07T00:09:12;21.17;;;10.87;;
76193;SDS011;64963;52.212;7.482;2022-12-07T00:11:38;24.23;;;10.50;;
76193;SDS011;64963;52.212;7.482;2022-12-07T00:14:05;22.10;;;10.53;;
76193;SDS011;64963;52.212;7.482;2022-12-07T00:16:31;23.35;;;10.25;;
76193;SDS011;64963;52.212;7.482;2022-12-07T00:18:57;21.83;;;10.77;;
76193;SDS011;64963;52.212;7.482;2022-12-07T00:21:23;25.00;;;11.30;;
76193;SDS011;64963;52.212;7.482;2022-12-07T00:23:49;26.25;;;11.90;;
76193;SDS011;64963;52.212;7.482;2022-12-07T00:26:18;25.27;;;11.43;;
76193;SDS011;64963;52.212;7.482;2022-12-07T00:28:45;26.80;;;11.90;;
76193;SDS011;64963;52.212;7.482;2022-12-07T00:31:11;26.02;;;12.23;;
76193;SDS011;64963;52.212;7.482;2022-12-07T00:33:36;24.00;;;11.98;;
76193;SDS011;64963;52.212;7.482;2022-12-07T00:36:03;26.10;;;11.80;;
76193;SDS011;64963;52.212;7.482;2022-12-07T00:38:32;27.73;;;12.53;;
76193;SDS011;64963;52.212;7.482;2022-12-07T00:40:58;26.00;;;12.05;;
76193;SDS011;64963;52.212;7.482;2022-12-07T00:43:23;22.48;;;12.18;;
76193;SDS011;64963;52.212;7.482;2022-12-07T00:45:48;22.33;;;12.40;;
76193;SDS011;64963;52.212;7.482;2022-12-07T00:48:14;24.70;;;12.53;;
76193;SDS011;64963;52.212;7.482;2022-12-07T00:50:40;24.10;;;12.07;;
76193;SDS011;64963;52.212;7.482;2022-12-07T00:53:05;25.90;;;12.17;;
76193;SDS011;64963;52.212;7.482;2022-12-07T00:55:34;23.23;;;11.63;;
76193;SDS011;64963;52.212;7.482;2022-12-07T00:57:59;19.67;;;10.13;;
76193;SDS011;64963;52.212;7.482;2022-12-07T01:00:24;20.45;;;10.70;;
76193;SDS011;64963;52.212;7.482;2022-12-07T01:02:49;21.15;;;10.30;;
76193;SDS011;64963;52.212;7.482;2022-12-07T01:05:15;25.10;;;10.97;;
76193;SDS011;64963;52.212;7.482;2022-12-07T01:07:40;20.63;;;11.00;;
76193;SDS011;64963;52.212;7.482;2022-12-07T01:10:05;23.33;;;11.17;;
76193;SDS011;64963;52.212;7.482;2022-12-07T01:12:30;19.47;;;9.93;;
76193;SDS011;64963;52.212;7.482;2022-12-07T01:14:56;18.20;;;9.23;;
76193;SDS011;64963;52.212;7.482;2022-12-07T01:17:21;19.98;;;9.90;;
76193;SDS011;64963;52.212;7.482;2022-12-07T01:19:46;22.50;;;10.73;;
76193;SDS011;64963;52.212;7.482;2022-12-07T01:22:11;20.97;;;9.30;;
76193;SDS011;64963;52.212;7.482;2022-12-07T01:24:36;19.77;;;8.97;;
76193;SDS011;64963;52.212;7.482;2022-12-07T01:27:01;21.73;;;9.13;;
76193;SDS011;64963;52.212;7.482;2022-12-07T01:29:27;20.57;;;9.53;;
76193;SDS011;64963;52.212;7.482;2022-12-07T01:31:52;23.55;;;9.65;;
76193;SDS011;64963;52.212;7.482;2022-12-07T01:34:18;18.67;;;8.35;;
76193;SDS011;64963;52.212;7.482;2022-12-07T01:36:43;22.90;;;8.90;;
76193;SDS011;64963;52.212;7.482;2022-12-07T01:39:09;18.05;;;8.23;;
76193;SDS011;64963;52.212;7.482;2022-12-07T01:41:36;22.00;;;8.60;;
76193;SDS011;64963;52.212;7.482;2022-12-07T01:44:10;20.55;;;8.75;;
76193;SDS011;64963;52.212;7.482;2022-12-07T01:46:35;17.50;;;8.30;;
76193;SDS011;64963;52.212;7.482;2022-12-07T01:49:01;16.50;;;7.88;;
76193;SDS011;64963;52.212;7.482;2022-12-07T01:51:26;21.00;;;7.67;;
76193;SDS011;64963;52.212;7.482;2022-12-07T01:53:52;19.77;;;8.07;;
76193;SDS011;64963;52.212;7.482;2022-12-07T01:56:18;16.13;;;7.77;;
76193;SDS011;64963;52.212;7.482;2022-12-07T01:58:45;20.50;;;7.75;;
76193;SDS011;64963;52.212;7.482;2022-12-07T02:01:10;17.67;;;7.77;;
76193;SDS011;64963;52.212;7.482;2022-12-07T02:03:39;19.97;;;7.77;;
76193;SDS011;64963;52.212;7.482;2022-12-07T02:06:05;18.15;;;7.75;;
76193;SDS011;64963;52.212;7.482;2022-12-07T02:08:31;14.47;;;6.80;;
76193;SDS011;64963;52.212;7.482;2022-12-07T02:10:56;14.82;;;7.43;;
76193;SDS011;64963;52.212;7.482;2022-12-07T02:13:22;18.87;;;6.73;;
76193;SDS011;64963;52.212;7.482;2022-12-07T02:28:35;12.83;;;5.97;;
76193;SDS011;64963;52.212;7.482;2022-12-07T02:31:04;19.67;;;5.90;;
76193;SDS011;64963;52.212;7.482;2022-12-07T02:33:32;18.77;;;5.63;;
76193;SDS011;64963;52.212;7.482;2022-12-07T02:36:12;21.65;;;6.50;;
76193;SDS011;64963;52.212;7.482;2022-12-07T02:38:39;13.13;;;6.28;;
76193;SDS011;64963;52.212;7.482;2022-12-07T02:43:43;15.05;;;5.38;;
76193;SDS011;64963;52.212;7.482;2022-12-07T02:46:11;12.70;;;5.40;;
76193;SDS011;64963;52.212;7.482;2022-12-07T02:48:39;13.63;;;5.38;;
76193;SDS011;64963;52.212;7.482;2022-12-07T02:51:04;13.63;;;5.95;;
76193;SDS011;64963;52.212;7.482;2022-12-07T02:55:59;18.27;;;5.20;;
76193;SDS011;64963;52.212;7.482;2022-12-07T02:58:32;15.87;;;6.63;;
76193;SDS011;64963;52.212;7.482;2022-12-07T03:01:04;13.40;;;4.97;;
76193;SDS011;64963;52.212;7.482;2022-12-07T03:03:31;11.57;;;5.07;;
76193;SDS011;64963;52.212;7.482;2022-12-07T03:08:26;17.77;;;5.33;;
76193;SDS011;64963;52.212;7.482;2022-12-07T03:10:59;11.75;;;4.57;;
76193;SDS011;64963;52.212;7.482;2022-12-07T03:15:55;16.33;;;5.25;;
76193;SDS011;64963;52.212;7.482;2022-12-07T03:18:23;13.57;;;5.28;;
76193;SDS011;64963;52.212;7.482;2022-12-07T03:20:50;14.75;;;5.40;;
76193;SDS011;64963;52.212;7.482;2022-12-07T03:23:16;17.42;;;5.88;;
76193;SDS011;64963;52.212;7.482;2022-12-07T03:25:45;16.20;;;5.32;;
76193;SDS011;64963;52.212;7.482;2022-12-07T03:28:12;14.07;;;4.63;;
76193;SDS011;64963;52.212;7.482;2022-12-07T03:30:44;13.63;;;5.15;;
76193;SDS011;64963;52.212;7.482;2022-12-07T03:33:16;16.23;;;6.18;;
76193;SDS011;64963;52.212;7.482;2022-12-07T03:38:25;19.20;;;5.80;;
76193;SDS011;64963;52.212;7.482;2022-12-07T03:41:06;12.13;;;5.17;;
76193;SDS011;64963;52.212;7.482;2022-12-07T03:43:33;14.60;;;5.05;;
76193;SDS011;64963;52.212;7.482;2022-12-07T03:53:39;14.20;;;4.83;;
76193;SDS011;64963;52.212;7.482;2022-12-07T03:56:05;16.13;;;5.55;;
76193;SDS011;64963;52.212;7.482;2022-12-07T03:58:31;13.55;;;4.93;;
76193;SDS011;64963;52.212;7.482;2022-12-07T04:00:58;9.85;;;4.10;;
76193;SDS011;64963;52.212;7.482;2022-12-07T04:03:23;17.07;;;5.43;;
76193;SDS011;64963;52.212;7.482;2022-12-07T04:05:48;13.30;;;4.73;;
76193;SDS011;64963;52.212;7.482;2022-12-07T04:08:13;16.13;;;5.77;;
76193;SDS011;64963;52.212;7.482;2022-12-07T04:10:38;9.60;;;4.20;;
76193;SDS011;64963;52.212;7.482;2022-12-07T04:13:04;9.13;;;3.83;;
76193;SDS011;64963;52.212;7.482;2022-12-07T04:15:29;10.37;;;3.93;;
76193;SDS011;64963;52.212;7.482;2022-12-07T04:17:54;11.40;;;4.20;;
76193;SDS011;64963;52.212;7.482;2022-12-07T04:20:19;9.90;;;3.63;;
76193;SDS011;64963;52.212;7.482;2022-12-07T04:22:44;8.43;;;3.90;;
76193;SDS011;64963;52.212;7.482;2022-12-07T04:25:10;11.70;;;4.57;;
76193;SDS011;64963;52.212;7.482;2022-12-07T04:27:35;8.20;;;3.38;;
76193;SDS011;64963;52.212;7.482;2022-12-07T04:30:00;12.23;;;4.30;;
76193;SDS011;64963;52.212;7.482;2022-12-07T04:32:25;10.70;;;3.90;;
76193;SDS011;64963;52.212;7.482;2022-12-07T04:34:50;7.90;;;3.20;;
76193;SDS011;64963;52.212;7.482;2022-12-07T04:37:16;13.37;;;3.53;;
76193;SDS011;64963;52.212;7.482;2022-12-07T04:39:41;13.20;;;3.80;;
76193;SDS011;64963;52.212;7.482;2022-12-07T04:42:06;10.23;;;3.60;;
76193;SDS011;64963;52.212;7.482;2022-12-07T04:44:31;11.70;;;3.80;;
76193;SDS011;64963;52.212;7.482;2022-12-07T04:46:56;14.43;;;3.90;;
76193;SDS011;64963;52.212;7.482;2022-12-07T04:49:22;14.50;;;3.88;;
76193;SDS011;64963;52.212;7.482;2022-12-07T04:51:47;7.93;;;3.13;;
76193;SDS011;64963;52.212;7.482;2022-12-07T04:54:12;9.07;;;2.83;;
76193;SDS011;64963;52.212;7.482;2022-12-07T04:56:38;9.07;;;3.03;;
76193;SDS011;64963;52.212;7.482;2022-12-07T04:59:03;10.38;;;2.97;;
76193;SDS011;64963;52.212;7.482;2022-12-07T05:01:29;12.47;;;2.97;;
76193;SDS011;64963;52.212;7.482;2022-12-07T05:03:54;11.13;;;2.67;;
76193;SDS011;64963;52.212;7.482;2022-12-07T05:06:19;10.70;;;2.93;;
76193;SDS011;64963;52.212;7.482;2022-12-07T05:08:45;8.63;;;2.70;;
76193;SDS011;64963;52.212;7.482;2022-12-07T05:11:10;13.20;;;3.07;;
76193;SDS011;64963;52.212;7.482;2022-12-07T05:13:36;8.60;;;2.80;;
76193;SDS011;64963;52.212;7.482;2022-12-07T05:16:01;9.13;;;3.30;;
76193;SDS011;64963;52.212;7.482;2022-12-07T05:18:26;11.20;;;3.43;;
76193;SDS011;64963;52.212;7.482;2022-12-07T05:20:51;7.20;;;3.00;;
76193;SDS011;64963;52.212;7.482;2022-12-07T05:23:17;9.37;;;3.00;;
76193;SDS011;64963;52.212;7.482;2022-12-07T05:25:42;10.17;;;3.57;;
76193;SDS011;64963;52.212;7.482;2022-12-07T05:28:07;11.90;;;3.23;;
76193;SDS011;64963;52.212;7.482;2022-12-07T05:30:32;8.73;;;2.27;;
76193;SDS011;64963;52.212;7.482;2022-12-07T05:32:58;12.03;;;2.60;;
76193;SDS011;64963;52.212;7.482;2022-12-07T05:35:23;12.73;;;2.97;;
76193;SDS011;64963;52.212;7.482;2022-12-07T05:37:48;8.00;;;2.67;;
76193;SDS011;64963;52.212;7.482;2022-12-07T05:40:13;10.90;;;2.37;;
76193;SDS011;64963;52.212;7.482;2022-12-07T05:42:39;7.53;;;2.38;;
76193;SDS011;64963;52.212;7.482;2022-12-07T05:45:04;6.70;;;2.70;;
76193;SDS011;64963;52.212;7.482;2022-12-07T05:47:30;15.00;;;2.70;;
76193;SDS011;64963;52.212;7.482;2022-12-07T05:49:55;8.60;;;2.23;;
76193;SDS011;64963;52.212;7.482;2022-12-07T05:52:20;9.07;;;2.30;;
76193;SDS011;64963;52.212;7.482;2022-12-07T05:54:46;8.53;;;2.20;;
76193;SDS011;64963;52.212;7.482;2022-12-07T05:57:12;11.57;;;2.58;;
76193;SDS011;64963;52.212;7.482;2022-12-07T05:59:37;11.35;;;3.00;;
76193;SDS011;64963;52.212;7.482;2022-12-07T06:02:04;11.10;;;2.20;;
76193;SDS011;64963;52.212;7.482;2022-12-07T06:04:30;7.90;;;2.00;;
76193;SDS011;64963;52.212;7.482;2022-12-07T06:06:56;8.20;;;1.93;;
76193;SDS011;64963;52.212;7.482;2022-12-07T06:09:22;12.90;;;2.07;;
76193;SDS011;64963;52.212;7.482;2022-12-07T06:11:47;9.32;;;2.28;;
76193;SDS011;64963;52.212;7.482;2022-12-07T06:14:12;8.20;;;2.00;;
76193;SDS011;64963;52.212;7.482;2022-12-07T06:16:38;10.77;;;1.70;;
76193;SDS011;64963;52.212;7.482;2022-12-07T06:19:03;11.37;;;2.07;;
76193;SDS011;64963;52.212;7.482;2022-12-07T06:21:28;9.43;;;2.00;;
76193;SDS011;64963;52.212;7.482;2022-12-07T06:23:53;8.83;;;2.13;;
76193;SDS011;64963;52.212;7.482;2022-12-07T06:26:18;10.80;;;2.37;;
76193;SDS011;64963;52.212;7.482;2022-12-07T06:28:43;6.77;;;2.10;;
76193;SDS011;64963;52.212;7.482;2022-12-07T06:31:09;10.53;;;2.67;;
76193;SDS011;64963;52.212;7.482;2022-12-07T06:33:34;12.45;;;2.40;;
76193;SDS011;64963;52.212;7.482;2022-12-07T06:35:59;13.97;;;3.33;;
76193;SDS011;64963;52.212;7.482;2022-12-07T06:38:25;7.28;;;2.95;;
76193;SDS011;64963;52.212;7.482;2022-12-07T06:40:50;12.80;;;3.10;;
76193;SDS011;64963;52.212;7.482;2022-12-07T06:43:15;10.03;;;2.93;;
76193;SDS011;64963;52.212;7.482;2022-12-07T06:45:40;15.70;;;3.53;;
76193;SDS011;64963;52.212;7.482;2022-12-07T06:48:05;11.17;;;3.03;;
76193;SDS011;64963;52.212;7.482;2022-12-07T06:50:31;10.33;;;3.50;;
76193;SDS011;64963;52.212;7.482;2022-12-07T06:52:56;10.10;;;3.20;;
76193;SDS011;64963;52.212;7.482;2022-12-07T06:55:21;10.83;;;3.50;;
76193;SDS011;64963;52.212;7.482;2022-12-07T06:57:46;13.93;;;3.40;;
76193;SDS011;64963;52.212;7.482;2022-12-07T07:00:11;12.43;;;3.50;;
76193;SDS011;64963;52.212;7.482;2022-12-07T07:02:37;11.30;;;3.88;;
76193;SDS011;64963;52.212;7.482;2022-12-07T07:05:02;11.50;;;3.40;;
76193;SDS011;64963;52.212;7.482;2022-12-07T07:07:27;11.37;;;3.17;;
76193;SDS011;64963;52.212;7.482;2022-12-07T07:09:53;8.30;;;2.60;;
76193;SDS011;64963;52.212;7.482;2022-12-07T07:12:18;10.57;;;2.83;;
76193;SDS011;64963;52.212;7.482;2022-12-07T07:14:43;9.20;;;3.00;;
76193;SDS011;64963;52.212;7.482;2022-12-07T07:17:08;15.23;;;3.83;;
76193;SDS011;64963;52.212;7.482;2022-12-07T07:19:33;9.07;;;3.30;;
76193;SDS011;64963;52.212;7.482;2022-12-07T07:21:58;11.07;;;3.73;;
76193;SDS011;64963;52.212;7.482;2022-12-07T07:24:24;11.05;;;3.00;;
76193;SDS011;64963;52.212;7.482;2022-12-07T07:26:49;9.60;;;2.73;;
76193;SDS011;64963;52.212;7.482;2022-12-07T07:29:14;11.80;;;3.00;;
76193;SDS011;64963;52.212;7.482;2022-12-07T07:31:39;8.23;;;2.40;;
76193;SDS011;64963;52.212;7.482;2022-12-07T07:34:04;9.07;;;2.10;;
76193;SDS011;64963;52.212;7.482;2022-12-07T07:36:29;6.67;;;2.67;;
76193;SDS011;64963;52.212;7.482;2022-12-07T07:38:55;12.07;;;2.40;;
76193;SDS011;64963;52.212;7.482;2022-12-07T07:41:20;9.43;;;2.53;;
76193;SDS011;64963;52.212;7.482;2022-12-07T07:43:45;8.90;;;2.40;;
76193;SDS011;64963;52.212;7.482;2022-12-07T07:46:11;9.57;;;2.83;;
76193;SDS011;64963;52.212;7.482;2022-12-07T07:48:36;8.93;;;2.60;;
76193;SDS011;64963;52.212;7.482;2022-12-07T07:51:04;11.80;;;2.30;;
76193;SDS011;64963;52.212;7.482;2022-12-07T07:53:30;9.43;;;2.63;;
76193;SDS011;64963;52.212;7.482;2022-12-07T07:55:55;11.00;;;2.60;;
76193;SDS011;64963;52.212;7.482;2022-12-07T07:58:20;10.97;;;2.40;;
76193;SDS011;64963;52.212;7.482;2022-12-07T08:00:46;10.15;;;2.92;;
76193;SDS011;64963;52.212;7.482;2022-12-07T08:03:11;9.00;;;2.87;;
76193;SDS011;64963;52.212;7.482;2022-12-07T08:05:36;10.17;;;2.50;;
76193;SDS011;64963;52.212;7.482;2022-12-07T08:08:02;8.93;;;3.13;;
76193;SDS011;64963;52.212;7.482;2022-12-07T08:10:27;6.57;;;2.30;;
76193;SDS011;64963;52.212;7.482;2022-12-07T08:12:52;9.90;;;2.83;;
76193;SDS011;64963;52.212;7.482;2022-12-07T08:15:17;8.45;;;2.20;;
76193;SDS011;64963;52.212;7.482;2022-12-07T08:17:43;8.57;;;2.13;;
76193;SDS011;64963;52.212;7.482;2022-12-07T08:20:09;11.80;;;2.40;;
76193;SDS011;64963;52.212;7.482;2022-12-07T08:22:34;9.00;;;2.40;;
76193;SDS011;64963;52.212;7.482;2022-12-07T08:24:59;8.03;;;2.67;;
76193;SDS011;64963;52.212;7.482;2022-12-07T08:27:24;6.10;;;2.20;;
76193;SDS011;64963;52.212;7.482;2022-12-07T08:29:49;5.53;;;2.23;;
76193;SDS011;64963;52.212;7.482;2022-12-07T08:32:14;8.80;;;1.90;;
76193;SDS011;64963;52.212;7.482;2022-12-07T08:34:40;9.27;;;1.83;;
76193;SDS011;64963;52.212;7.482;2022-12-07T08:37:05;7.60;;;1.77;;
76193;SDS011;64963;52.212;7.482;2022-12-07T08:39:30;6.50;;;1.90;;
76193;SDS011;64963;52.212;7.482;2022-12-07T08:41:55;9.87;;;2.03;;
76193;SDS011;64963;52.212;7.482;2022-12-07T08:44:21;9.43;;;2.00;;
76193;SDS011;64963;52.212;7.482;2022-12-07T08:46:47;8.38;;;1.83;;
76193;SDS011;64963;52.212;7.482;2022-12-07T08:51:39;5.72;;;1.90;;
76193;SDS011;64963;52.212;7.482;2022-12-07T08:54:06;4.83;;;1.80;;
76193;SDS011;64963;52.212;7.482;2022-12-07T08:56:32;6.55;;;1.90;;
76193;SDS011;64963;52.212;7.482;2022-12-07T08:58:57;9.47;;;2.10;;
76193;SDS011;64963;52.212;7.482;2022-12-07T09:01:23;7.93;;;1.92;;
76193;SDS011;64963;52.212;7.482;2022-12-07T09:03:48;7.83;;;2.00;;
76193;SDS011;64963;52.212;7.482;2022-12-07T09:06:13;8.23;;;1.83;;
76193;SDS011;64963;52.212;7.482;2022-12-07T09:08:39;6.00;;;2.10;;
76193;SDS011;64963;52.212;7.482;2022-12-07T09:11:06;8.93;;;1.93;;
76193;SDS011;64963;52.212;7.482;2022-12-07T09:13:32;6.75;;;2.10;;
76193;SDS011;64963;52.212;7.482;2022-12-07T09:15:57;12.60;;;2.00;;
76193;SDS011;64963;52.212;7.482;2022-12-07T09:18:22;6.90;;;2.10;;
76193;SDS011;64963;52.212;7.482;2022-12-07T09:20:48;10.73;;;2.10;;
76193;SDS011;64963;52.212;7.482;2022-12-07T09:23:13;6.85;;;2.53;;
76193;SDS011;64963;52.212;7.482;2022-12-07T09:25:38;4.30;;;1.70;;
76193;SDS011;64963;52.212;7.482;2022-12-07T09:28:03;8.33;;;2.00;;
76193;SDS011;64963;52.212;7.482;2022-12-07T09:30:28;11.43;;;2.63;;
76193;SDS011;64963;52.212;7.482;2022-12-07T09:32:54;4.17;;;1.50;;
76193;SDS011;64963;52.212;7.482;2022-12-07T09:35:19;7.27;;;1.70;;
76193;SDS011;64963;52.212;7.482;2022-12-07T09:37:44;8.87;;;2.13;;
76193;SDS011;64963;52.212;7.482;2022-12-07T09:40:10;7.40;;;1.80;;
76193;SDS011;64963;52.212;7.482;2022-12-07T09:42:37;13.82;;;2.83;;
76193;SDS011;64963;52.212;7.482;2022-12-07T09:45:05;8.77;;;2.20;;
76193;SDS011;64963;52.212;7.482;2022-12-07T09:47:30;7.20;;;2.33;;
76193;SDS011;64963;52.212;7.482;2022-12-07T09:49:58;5.57;;;1.95;;
76193;SDS011;64963;52.212;7.482;2022-12-07T09:52:25;7.07;;;1.80;;
76193;SDS011;64963;52.212;7.482;2022-12-07T09:54:51;8.07;;;1.85;;
76193;SDS011;64963;52.212;7.482;2022-12-07T09:57:17;6.57;;;1.77;;
76193;SDS011;64963;52.212;7.482;2022-12-07T09:59:42;7.57;;;2.08;;
76193;SDS011;64963;52.212;7.482;2022-12-07T10:02:24;6.33;;;1.97;;
76193;SDS011;64963;52.212;7.482;2022-12-07T10:04:50;7.43;;;1.40;;
76193;SDS011;64963;52.212;7.482;2022-12-07T10:07:15;7.60;;;1.50;;
76193;SDS011;64963;52.212;7.482;2022-12-07T10:09:40;9.27;;;1.97;;
76193;SDS011;64963;52.212;7.482;2022-12-07T10:12:07;5.97;;;1.40;;
76193;SDS011;64963;52.212;7.482;2022-12-07T10:14:33;8.10;;;1.30;;
76193;SDS011;64963;52.212;7.482;2022-12-07T10:16:59;6.32;;;1.30;;
76193;SDS011;64963;52.212;7.482;2022-12-07T10:19:28;5.17;;;1.60;;
76193;SDS011;64963;52.212;7.482;2022-12-07T10:24:24;4.23;;;1.20;;
76193;SDS011;64963;52.212;7.482;2022-12-07T10:26:51;5.23;;;1.30;;
76193;SDS011;64963;52.212;7.482;2022-12-07T10:29:17;6.47;;;1.80;;
76193;SDS011;64963;52.212;7.482;2022-12-07T10:31:44;7.32;;;1.50;;
76193;SDS011;64963;52.212;7.482;2022-12-07T10:34:20;6.22;;;1.80;;
76193;SDS011;64963;52.212;7.482;2022-12-07T10:36:45;4.97;;;1.67;;
76193;SDS011;64963;52.212;7.482;2022-12-07T10:39:11;5.55;;;1.40;;
76193;SDS011;64963;52.212;7.482;2022-12-07T10:41:56;7.20;;;1.60;;
76193;SDS011;64963;52.212;7.482;2022-12-07T10:44:29;4.65;;;1.48;;
76193;SDS011;64963;52.212;7.482;2022-12-07T10:46:58;5.28;;;1.45;;
76193;SDS011;64963;52.212;7.482;2022-12-07T11:00:17;6.50;;;1.80;;
76193;SDS011;64963;52.212;7.482;2022-12-07T11:07:39;8.13;;;1.85;;
76193;SDS011;64963;52.212;7.482;2022-12-07T11:10:14;7.60;;;2.00;;
76193;SDS011;64963;52.212;7.482;2022-12-07T11:15:18;6.47;;;2.05;;
76193;SDS011;64963;52.212;7.482;2022-12-07T11:17:58;9.15;;;1.80;;
76193;SDS011;64963;52.212;7.482;2022-12-07T11:20:46;7.20;;;2.10;;
76193;SDS011;64963;52.212;7.482;2022-12-07T11:26:05;5.22;;;1.60;;
76193;SDS011;64963;52.212;7.482;2022-12-07T11:28:39;7.50;;;1.88;;
76193;SDS011;64963;52.212;7.482;2022-12-07T11:31:13;7.38;;;2.00;;
76193;SDS011;64963;52.212;7.482;2022-12-07T11:33:47;7.78;;;2.50;;
76193;SDS011;64963;52.212;7.482;2022-12-07T11:36:31;5.70;;;1.83;;
76193;SDS011;64963;52.212;7.482;2022-12-07T11:39:08;9.10;;;2.00;;
76193;SDS011;64963;52.212;7.482;2022-12-07T11:41:36;7.68;;;2.00;;
76193;SDS011;64963;52.212;7.482;2022-12-07T11:46:49;10.10;;;2.45;;
76193;SDS011;64963;52.212;7.482;2022-12-07T11:49:20;4.90;;;2.13;;
76193;SDS011;64963;52.212;7.482;2022-12-07T11:51:48;7.88;;;2.25;;
76193;SDS011;64963;52.212;7.482;2022-12-07T11:54:17;6.03;;;1.80;;
76193;SDS011;64963;52.212;7.482;2022-12-07T11:56:44;9.52;;;1.90;;
76193;SDS011;64963;52.212;7.482;2022-12-07T11:59:38;7.75;;;2.05;;
76193;SDS011;64963;52.212;7.482;2022-12-07T12:02:18;12.00;;;2.07;;
76193;SDS011;64963;52.212;7.482;2022-12-07T12:05:02;8.55;;;2.10;;
76193;SDS011;64963;52.212;7.482;2022-12-07T12:07:31;9.40;;;1.90;;
76193;SDS011;64963;52.212;7.482;2022-12-07T12:10:06;5.87;;;1.50;;
76193;SDS011;64963;52.212;7.482;2022-12-07T12:13:12;7.93;;;1.60;;
76193;SDS011;64963;52.212;7.482;2022-12-07T12:20:49;6.13;;;1.67;;
76193;SDS011;64963;52.212;7.482;2022-12-07T12:23:33;10.80;;;1.50;;
76193;SDS011;64963;52.212;7.482;2022-12-07T12:26:02;7.90;;;1.70;;
76193;SDS011;64963;52.212;7.482;2022-12-07T12:33:38;6.82;;;1.83;;
76193;SDS011;64963;52.212;7.482;2022-12-07T12:36:52;4.63;;;1.50;;
76193;SDS011;64963;52.212;7.482;2022-12-07T12:44:01;11.02;;;1.88;;
76193;SDS011;64963;52.212;7.482;2022-12-07T12:48:55;5.57;;;1.13;;
76193;SDS011;64963;52.212;7.482;2022-12-07T12:51:37;9.02;;;1.42;;
76193;SDS011;64963;52.212;7.482;2022-12-07T12:54:08;5.97;;;1.30;;
76193;SDS011;64963;52.212;7.482;2022-12-07T12:59:18;6.40;;;1.80;;
76193;SDS011;64963;52.212;7.482;2022-12-07T13:01:46;4.17;;;1.67;;
76193;SDS011;64963;52.212;7.482;2022-12-07T13:04:21;7.90;;;1.95;;
76193;SDS011;64963;52.212;7.482;2022-12-07T13:06:47;6.07;;;1.63;;
76193;SDS011;64963;52.212;7.482;2022-12-07T13:09:17;5.40;;;1.50;;
76193;SDS011;64963;52.212;7.482;2022-12-07T13:11:44;7.90;;;1.60;;
76193;SDS011;64963;52.212;7.482;2022-12-07T13:16:54;4.85;;;1.13;;
76193;SDS011;64963;52.212;7.482;2022-12-07T13:22:08;7.53;;;1.38;;
76193;SDS011;64963;52.212;7.482;2022-12-07T13:24:49;6.63;;;2.10;;
76193;SDS011;64963;52.212;7.482;2022-12-07T13:27:14;8.80;;;1.73;;
76193;SDS011;64963;52.212;7.482;2022-12-07T13:29:39;7.20;;;1.60;;
76193;SDS011;64963;52.212;7.482;2022-12-07T13:32:04;5.83;;;1.20;;
76193;SDS011;64963;52.212;7.482;2022-12-07T13:34:37;9.60;;;1.37;;
76193;SDS011;64963;52.212;7.482;2022-12-07T13:37:24;6.43;;;1.50;;
76193;SDS011;64963;52.212;7.482;2022-12-07T13:39:49;9.25;;;1.30;;
76193;SDS011;64963;52.212;7.482;2022-12-07T13:42:19;7.63;;;1.75;;
76193;SDS011;64963;52.212;7.482;2022-12-07T13:44:47;6.93;;;1.90;;
76193;SDS011;64963;52.212;7.482;2022-12-07T13:49:50;7.15;;;1.50;;
76193;SDS011;64963;52.212;7.482;2022-12-07T13:52:21;5.22;;;1.67;;
76193;SDS011;64963;52.212;7.482;2022-12-07T13:57:15;6.70;;;1.48;;
76193;SDS011;64963;52.212;7.482;2022-12-07T13:59:41;13.07;;;1.63;;
76193;SDS011;64963;52.212;7.482;2022-12-07T14:02:17;6.93;;;1.08;;
76193;SDS011;64963;52.212;7.482;2022-12-07T14:04:42;7.50;;;1.40;;
76193;SDS011;64963;52.212;7.482;2022-12-07T14:09:53;6.95;;;1.60;;
76193;SDS011;64963;52.212;7.482;2022-12-07T14:12:18;13.23;;;2.10;;
76193;SDS011;64963;52.212;7.482;2022-12-07T14:14:46;4.87;;;1.13;;
76193;SDS011;64963;52.212;7.482;2022-12-07T14:17:16;6.00;;;1.52;;
76193;SDS011;64963;52.212;7.482;2022-12-07T14:22:23;4.95;;;1.10;;
76193;SDS011;64963;52.212;7.482;2022-12-07T14:24:48;7.75;;;1.48;;
76193;SDS011;64963;52.212;7.482;2022-12-07T14:27:23;7.30;;;1.50;;
76193;SDS011;64963;52.212;7.482;2022-12-07T14:29:48;6.22;;;1.63;;
76193;SDS011;64963;52.212;7.482;2022-12-07T14:32:21;9.07;;;1.07;;
76193;SDS011;64963;52.212;7.482;2022-12-07T14:34:52;7.17;;;1.33;;
76193;SDS011;64963;52.212;7.482;2022-12-07T14:37:18;8.25;;;1.60;;
76193;SDS011;64963;52.212;7.482;2022-12-07T14:39:43;6.00;;;1.50;;
76193;SDS011;64963;52.212;7.482;2022-12-07T14:42:08;7.30;;;1.30;;
76193;SDS011;64963;52.212;7.482;2022-12-07T14:44:33;6.83;;;1.70;;
76193;SDS011;64963;52.212;7.482;2022-12-07T14:46:59;4.40;;;1.70;;
76193;SDS011;64963;52.212;7.482;2022-12-07T14:49:24;5.93;;;1.40;;
76193;SDS011;64963;52.212;7.482;2022-12-07T14:51:49;6.10;;;1.60;;
76193;SDS011;64963;52.212;7.482;2022-12-07T14:54:18;7.17;;;2.10;;
76193;SDS011;64963;52.212;7.482;2022-12-07T14:56:44;8.77;;;1.50;;
76193;SDS011;64963;52.212;7.482;2022-12-07T14:59:11;7.95;;;1.60;;
76193;SDS011;64963;52.212;7.482;2022-12-07T15:01:36;5.97;;;1.73;;
76193;SDS011;64963;52.212;7.482;2022-12-07T15:04:02;6.10;;;2.10;;
76193;SDS011;64963;52.212;7.482;2022-12-07T15:06:27;6.70;;;1.63;;
76193;SDS011;64963;52.212;7.482;2022-12-07T15:08:52;7.53;;;1.63;;
76193;SDS011;64963;52.212;7.482;2022-12-07T15:11:17;9.37;;;2.07;;
76193;SDS011;64963;52.212;7.482;2022-12-07T15:13:42;8.80;;;1.50;;
76193;SDS011;64963;52.212;7.482;2022-12-07T15:16:09;11.03;;;1.70;;
76193;SDS011;64963;52.212;7.482;2022-12-07T15:18:35;7.47;;;1.90;;
76193;SDS011;64963;52.212;7.482;2022-12-07T15:21:00;7.80;;;1.85;;
76193;SDS011;64963;52.212;7.482;2022-12-07T15:23:25;10.83;;;1.60;;
76193;SDS011;64963;52.212;7.482;2022-12-07T15:25:51;7.80;;;1.53;;
76193;SDS011;64963;52.212;7.482;2022-12-07T15:28:16;5.43;;;1.63;;
76193;SDS011;64963;52.212;7.482;2022-12-07T15:30:41;8.00;;;1.60;;
76193;SDS011;64963;52.212;7.482;2022-12-07T15:33:07;8.63;;;1.50;;
76193;SDS011;64963;52.212;7.482;2022-12-07T15:35:32;5.60;;;1.67;;
76193;SDS011;64963;52.212;7.482;2022-12-07T15:37:57;10.23;;;1.50;;
76193;SDS011;64963;52.212;7.482;2022-12-07T15:40:22;7.70;;;2.33;;
76193;SDS011;64963;52.212;7.482;2022-12-07T15:42:47;6.83;;;1.70;;
76193;SDS011;64963;52.212;7.482;2022-12-07T15:45:13;7.83;;;1.93;;
76193;SDS011;64963;52.212;7.482;2022-12-07T15:47:42;8.10;;;2.40;;
76193;SDS011;64963;52.212;7.482;2022-12-07T15:50:09;11.65;;;2.85;;
76193;SDS011;64963;52.212;7.482;2022-12-07T15:52:34;9.50;;;2.72;;
76193;SDS011;64963;52.212;7.482;2022-12-07T15:54:59;9.37;;;2.13;;
76193;SDS011;64963;52.212;7.482;2022-12-07T15:57:25;6.30;;;2.33;;
76193;SDS011;64963;52.212;7.482;2022-12-07T15:59:50;10.63;;;3.67;;
76193;SDS011;64963;52.212;7.482;2022-12-07T16:02:15;9.10;;;2.83;;
76193;SDS011;64963;52.212;7.482;2022-12-07T16:04:40;8.87;;;3.00;;
76193;SDS011;64963;52.212;7.482;2022-12-07T16:07:06;8.33;;;2.43;;
76193;SDS011;64963;52.212;7.482;2022-12-07T16:09:31;8.95;;;2.47;;
76193;SDS011;64963;52.212;7.482;2022-12-07T16:11:56;12.03;;;2.17;;
76193;SDS011;64963;52.212;7.482;2022-12-07T16:14:21;8.77;;;2.33;;
76193;SDS011;64963;52.212;7.482;2022-12-07T16:16:47;7.23;;;2.27;;
76193;SDS011;64963;52.212;7.482;2022-12-07T16:19:12;10.30;;;2.58;;